Time;durP1;ratioP1;P1;durP2;ratioP2;P2;SDS_P1;SDS_P2;PMS_P1;PMS_P2;Temp;Humidity;BMP_temperature;BMP_pressure;BME280_temperature;BME280_humidity;BME280_pressure;Samples;Min_cycle;Max_cycle;Signal;HPM_P1;HPM_P2
2021/05/17 04:39:20;;;;;;;2.45;1.00;;;;;;;10.24;79.98;98809.97;5191156;27;20340;-70
2021/05/17 04:41:45;;;;;;;3.10;1.33;;;;;;;10.44;80.21;98816.16;5193650;27;20317;-71
2021/05/17 04:44:11;;;;;;;1.48;0.80;;;;;;;10.68;80.31;98832.56;5195721;27;20034;-71
2021/05/17 04:46:36;;;;;;;5.70;1.00;;;;;;;10.88;79.91;98827.25;5193885;27;20037;-70
2021/05/17 04:49:02;;;;;;;3.60;1.13;;;;;;;11.08;79.01;98821.88;5193328;27;27729;-71
2021/05/17 04:51:27;;;;;;;2.20;1.00;;;;;;;11.29;79.27;98825.31;5195046;27;20409;-70
2021/05/17 04:53:53;;;;;;;2.40;0.98;;;;;;;11.48;79.06;98832.47;5194420;27;20401;-71
2021/05/17 04:56:19;;;;;;;3.97;1.40;;;;;;;11.60;78.51;98823.81;5195305;27;20049;-71
2021/05/17 04:58:44;;;;;;;3.50;0.90;;;;;;;11.69;78.30;98820.69;5176243;27;20041;-70
2021/05/17 05:01:10;;;;;;;2.30;1.00;;;;;;;11.78;78.56;98823.13;5195575;27;20045;-70
2021/05/17 05:03:35;;;;;;;2.67;1.08;;;;;;;11.88;77.84;98822.69;5193867;27;34135;-69
2021/05/17 05:06:01;;;;;;;6.03;1.65;;;;;;;11.93;76.90;98825.53;5194388;27;33662;-69
2021/05/17 05:08:26;;;;;;;3.58;0.85;;;;;;;12.01;77.59;98830.66;5193662;27;20027;-72
2021/05/17 05:10:52;;;;;;;4.65;1.25;;;;;;;12.07;77.13;98821.81;5176206;27;20428;-74
2021/05/17 05:13:17;;;;;;;2.03;0.95;;;;;;;12.11;76.67;98820.34;5194385;27;20539;-74
2021/05/17 05:15:43;;;;;;;4.65;1.15;;;;;;;12.10;75.80;98818.72;5194489;27;27790;-68
2021/05/17 05:18:08;;;;;;;3.80;1.10;;;;;;;12.11;76.55;98815.00;5194328;27;38856;-68
2021/05/17 05:20:34;;;;;;;3.03;1.08;;;;;;;12.14;76.31;98827.94;5193739;27;20023;-69
2021/05/17 05:23:01;;;;;;;1.92;0.90;;;;;;;12.12;75.87;98832.63;5193665;27;22259;-71
2021/05/17 05:25:33;;;;;;;2.30;0.80;;;;;;;12.14;76.27;98833.25;5194703;27;20069;-69
2021/05/17 05:28:00;;;;;;;1.75;0.93;;;;;;;12.24;75.57;98829.31;5176471;27;20053;-69
2021/05/17 05:31:13;;;;;;;4.03;0.98;;;;;;;12.31;76.13;98822.88;5193217;27;20023;-69
2021/05/17 05:33:17;;;;;;;4.22;1.13;;;;;;;12.39;75.27;98832.50;5184832;27;20806;-71
2021/05/17 05:35:43;;;;;;;1.40;0.93;;;;;;;12.42;74.48;98816.03;5194463;27;20150;-71
2021/05/17 05:38:09;;;;;;;3.03;0.90;;;;;;;12.47;74.50;98818.88;5194023;27;20070;-71
2021/05/17 05:40:35;;;;;;;5.13;0.93;;;;;;;12.54;74.18;98824.19;5192283;27;20383;-70
2021/05/17 05:43:00;;;;;;;3.22;1.13;;;;;;;12.68;75.06;98822.22;5174962;27;20029;-72
2021/05/17 05:45:26;;;;;;;2.10;0.90;;;;;;;12.88;75.14;98829.28;5192632;27;20038;-71
2021/05/17 05:47:51;;;;;;;3.13;1.08;;;;;;;12.98;73.99;98821.56;5192825;27;20027;-71
2021/05/17 05:50:16;;;;;;;3.47;0.75;;;;;;;13.13;74.43;98818.56;5182394;27;20037;-71
2021/05/17 05:52:42;;;;;;;2.15;0.80;;;;;;;13.30;73.50;98822.28;5177832;27;37113;-72
2021/05/17 05:55:08;;;;;;;1.88;0.70;;;;;;;13.43;73.73;98817.88;5179164;27;35273;-71
2021/05/17 05:57:40;;;;;;;2.85;1.02;;;;;;;13.56;73.75;98812.38;5143824;27;20031;-71
2021/05/17 06:00:06;;;;;;;2.95;0.50;;;;;;;13.72;73.14;98832.34;5179550;27;20072;-69
2021/05/17 06:02:32;;;;;;;2.28;0.70;;;;;;;13.84;73.17;98827.88;5178984;27;20083;-70
2021/05/17 06:04:58;;;;;;;7.43;0.95;;;;;;;14.12;73.57;98834.53;5179025;27;20058;-70
2021/05/17 06:07:24;;;;;;;2.00;0.90;;;;;;;14.26;73.04;98829.00;5180091;27;20022;-68
2021/05/17 06:09:49;;;;;;;2.83;0.70;;;;;;;14.37;71.74;98814.84;5180369;27;20031;-71
2021/05/17 06:12:15;;;;;;;1.55;0.65;;;;;;;14.41;70.97;98821.38;5179733;27;20363;-71
2021/05/17 06:14:40;;;;;;;1.02;0.70;;;;;;;14.39;70.46;98829.63;5180272;27;20120;-70
2021/05/17 06:17:06;;;;;;;3.28;0.77;;;;;;;14.40;70.15;98825.09;5179629;27;20031;-68
2021/05/17 06:19:32;;;;;;;3.53;1.85;;;;;;;14.35;69.34;98819.59;5179896;27;20170;-70
2021/05/17 06:21:57;;;;;;;2.65;1.88;;;;;;;14.37;69.82;98807.59;5179639;27;20447;-71
2021/05/17 06:24:23;;;;;;;2.28;0.93;;;;;;;14.43;69.46;98821.13;5178517;27;20035;-70
2021/05/17 06:26:48;;;;;;;5.15;1.30;;;;;;;14.42;69.30;98803.41;5179549;27;20030;-70
2021/05/17 06:29:14;;;;;;;4.90;1.10;;;;;;;14.46;69.32;98808.09;5178347;27;20057;-72
2021/05/17 06:31:44;;;;;;;1.58;0.55;;;;;;;14.54;68.86;98804.25;5161085;27;20139;-71
2021/05/17 06:34:09;;;;;;;1.30;0.70;;;;;;;14.62;68.75;98814.63;5179868;27;20468;-71
2021/05/17 06:36:35;;;;;;;3.08;0.80;;;;;;;14.67;68.78;98811.31;5179646;27;20071;-72
2021/05/17 06:39:00;;;;;;;1.60;0.60;;;;;;;14.72;67.91;98812.25;5179439;27;20372;-69
2021/05/17 06:41:26;;;;;;;1.83;1.00;;;;;;;14.74;67.99;98803.19;5178662;27;31146;-72
2021/05/17 06:43:51;;;;;;;2.15;0.77;;;;;;;14.80;68.31;98808.41;5179522;27;20026;-71
2021/05/17 06:46:17;;;;;;;1.42;0.70;;;;;;;14.86;67.75;98796.75;5160301;27;20027;-73
2021/05/17 06:48:42;;;;;;;2.45;0.80;;;;;;;14.88;67.72;98793.84;5177718;27;20105;-70
2021/05/17 06:51:12;;;;;;;1.00;0.73;;;;;;;14.94;68.19;98787.56;5178004;27;20097;-72
2021/05/17 06:53:39;;;;;;;6.15;1.27;;;;;;;15.00;68.03;98794.66;5178627;27;20030;-70
2021/05/17 06:56:08;;;;;;;2.13;0.93;;;;;;;15.03;67.67;98802.22;5179301;27;20559;-73
2021/05/17 06:59:18;;;;;;;1.70;0.80;;;;;;;14.96;66.97;98801.53;5177866;27;20037;-73
2021/05/17 07:01:25;;;;;;;2.08;0.95;;;;;;;15.09;67.94;98805.88;5153650;27;20483;-73
2021/05/17 07:03:51;;;;;;;3.85;1.63;;;;;;;15.25;67.92;98827.66;5179038;27;20031;-73
2021/05/17 07:06:20;;;;;;;2.95;1.05;;;;;;;15.37;67.57;98826.59;5177788;27;20027;-70
2021/05/17 07:11:34;;;;;;;1.60;0.70;;;;;;;15.87;65.86;98845.94;5159735;27;20113;-71
2021/05/17 07:14:00;;;;;;;1.58;0.80;;;;;;;15.96;66.00;98841.78;5177396;27;20023;-72
2021/05/17 07:16:25;;;;;;;5.25;1.00;;;;;;;15.93;65.12;98826.16;5178508;27;27552;-71
2021/05/17 07:18:50;;;;;;;1.88;1.10;;;;;;;16.11;65.78;98827.03;5176972;27;29729;-69
2021/05/17 07:23:42;;;;;;;2.45;1.00;;;;;;;16.39;64.21;98813.59;5178457;27;20031;-68
2021/05/17 07:26:18;;;;;;;1.58;0.80;;;;;;;16.60;64.73;98794.31;5177974;27;20559;-70
2021/05/17 07:28:45;;;;;;;2.90;0.95;;;;;;;16.87;64.75;98794.47;5158964;27;20419;-68
2021/05/17 07:31:10;;;;;;;2.80;0.90;;;;;;;17.27;65.35;98795.31;5177739;27;20031;-67
2021/05/17 07:33:37;;;;;;;4.55;1.20;;;;;;;17.65;65.43;98802.53;5177862;27;20447;-67
2021/05/17 07:36:03;;;;;;;3.85;1.10;;;;;;;18.05;64.67;98806.00;5177764;27;20032;-68
2021/05/17 07:38:31;;;;;;;2.03;0.95;;;;;;;18.26;63.71;98810.53;5158867;27;20039;-72
2021/05/17 07:40:57;;;;;;;1.02;0.70;;;;;;;18.40;62.70;98812.81;5177476;27;20019;-68
2021/05/17 07:43:23;;;;;;;3.45;1.20;;;;;;;18.57;62.59;98818.06;5177376;27;20026;-68
2021/05/17 07:45:48;;;;;;;2.35;0.77;;;;;;;18.64;62.92;98834.03;5177455;27;20027;-67
2021/05/17 07:48:14;;;;;;;3.35;0.80;;;;;;;18.75;61.22;98830.34;5172925;27;20027;-71
2021/05/17 07:50:40;;;;;;;2.28;0.65;;;;;;;18.50;58.35;98834.47;5159150;27;20022;-70
2021/05/17 07:53:05;;;;;;;3.05;1.25;;;;;;;18.44;60.14;98830.09;5176253;27;20031;-70
2021/05/17 07:55:31;;;;;;;3.33;0.70;;;;;;;18.42;59.82;98821.44;5175916;27;26999;-67
2021/05/17 07:57:56;;;;;;;2.22;0.80;;;;;;;18.55;60.23;98823.72;5178093;27;20075;-70
2021/05/17 08:00:21;;;;;;;4.22;1.02;;;;;;;18.58;59.76;98825.91;5158735;27;38281;-70
2021/05/17 08:02:47;;;;;;;2.33;0.60;;;;;;;18.63;58.68;98821.63;5165373;27;20083;-71
2021/05/17 08:05:12;;;;;;;3.03;0.73;;;;;;;18.38;57.73;98831.13;5124485;27;20377;-70
2021/05/17 08:07:38;;;;;;;2.55;0.57;;;;;;;18.33;58.64;98833.75;5124531;27;20036;-70
2021/05/17 08:10:05;;;;;;;2.28;0.90;;;;;;;18.33;57.27;98833.75;5124895;27;20028;-71
2021/05/17 08:12:30;;;;;;;1.17;0.60;;;;;;;18.20;56.70;98849.25;5126048;27;20515;-70
2021/05/17 08:14:56;;;;;;;2.17;1.02;;;;;;;18.01;56.14;98834.50;5114425;28;20020;-72
2021/05/17 08:17:22;;;;;;;2.63;0.70;;;;;;;18.09;56.21;98831.34;5114350;28;20031;-70
2021/05/17 08:19:47;;;;;;;3.63;0.90;;;;;;;18.05;55.47;98827.53;5114942;27;32822;-71
2021/05/17 08:22:12;;;;;;;3.85;0.70;;;;;;;18.11;56.75;98831.91;5115226;27;21807;-72
2021/05/17 08:24:39;;;;;;;2.00;0.90;;;;;;;18.14;55.49;98834.13;5113454;27;20024;-72
2021/05/17 08:27:05;;;;;;;1.17;0.82;;;;;;;17.96;55.17;98829.88;5115220;27;20875;-74
2021/05/17 08:29:33;;;;;;;1.48;0.73;;;;;;;18.03;56.44;98827.81;5114852;27;20031;-71
2021/05/17 08:31:59;;;;;;;2.70;0.82;;;;;;;18.01;53.97;98826.41;5115356;27;20066;-75
2021/05/17 08:34:24;;;;;;;3.53;1.08;;;;;;;17.98;55.71;98821.53;5096598;28;20028;-71
2021/05/17 08:36:50;;;;;;;2.35;1.00;;;;;;;18.00;55.82;98820.22;5113695;28;28760;-72
2021/05/17 08:39:15;;;;;;;3.40;0.98;;;;;;;18.07;55.68;98820.00;5114814;27;20062;-72
2021/05/17 08:41:41;;;;;;;4.53;1.08;;;;;;;18.15;55.84;98822.28;5116140;27;36757;-71
2021/05/17 08:44:06;;;;;;;3.05;1.10;;;;;;;18.16;55.55;98817.69;5135623;27;23180;-75
2021/05/17 08:46:32;;;;;;;1.98;1.27;;;;;;;18.21;55.85;98815.06;5117538;27;20412;-76
2021/05/17 08:48:57;;;;;;;3.75;1.00;;;;;;;18.31;55.85;98820.53;5135784;27;20085;-73
2021/05/17 08:51:27;;;;;;;3.67;1.13;;;;;;;18.22;54.85;98817.50;5133914;27;20043;-69
2021/05/17 08:53:53;;;;;;;;;;;;;;;18.14;54.83;98814.41;5117721;27;20035;-73
2021/05/17 08:56:19;;;;;;;3.42;0.90;;;;;;;18.09;54.58;98820.59;5135546;27;19916;-71
2021/05/17 08:58:44;;;;;;;2.88;0.70;;;;;;;18.04;54.59;98817.81;5134003;27;20028;-72
2021/05/17 09:01:10;;;;;;;2.53;0.65;;;;;;;18.05;54.58;98806.78;5134068;27;20092;-68
2021/05/17 09:03:35;;;;;;;2.33;0.80;;;;;;;18.05;54.86;98804.09;5135735;27;20457;-70
2021/05/17 09:06:07;;;;;;;2.55;0.55;;;;;;;18.20;55.11;98814.22;5135123;27;20028;-75
2021/05/17 09:08:43;;;;;;;4.15;0.93;;;;;;;18.47;55.52;98821.50;5134083;27;20066;-70
2021/05/17 09:11:09;;;;;;;2.03;0.93;;;;;;;18.74;55.51;98823.31;5134304;27;20519;-72
2021/05/17 09:13:34;;;;;;;2.53;0.90;;;;;;;18.83;53.78;98826.38;5113235;27;20054;-72
2021/05/17 09:15:59;;;;;;;4.25;1.15;;;;;;;18.84;54.04;98825.31;5113588;28;20024;-71
2021/05/17 09:18:30;;;;;;;2.10;1.00;;;;;;;19.10;54.77;98831.75;5129581;27;31691;-71
2021/05/17 09:20:58;;;;;;;3.03;0.90;;;;;;;19.36;54.38;98834.59;5114758;27;20032;-71
2021/05/17 09:23:29;;;;;;;1.75;0.75;;;;;;;19.41;53.61;98835.44;5114589;27;20098;-71
2021/05/17 09:26:16;;;;;;;1.83;0.57;;;;;;;19.64;53.95;98837.97;5117928;27;20525;-72
2021/05/17 09:28:46;;;;;;;2.92;1.10;;;;;;;19.75;53.43;98842.34;5117327;28;20032;-71
2021/05/17 09:31:21;;;;;;;2.80;0.73;;;;;;;19.98;53.78;98834.91;5134111;27;20036;-73
2021/05/17 09:33:50;;;;;;;2.65;0.75;;;;;;;20.26;52.35;98834.44;5118488;27;20105;-72
2021/05/17 09:36:22;;;;;;;4.70;0.80;;;;;;;20.03;51.27;98826.81;5118153;27;20028;-71
2021/05/17 09:38:55;;;;;;;1.70;0.50;;;;;;;19.97;51.77;98835.97;5117815;28;20044;-72
2021/05/17 09:41:20;;;;;;;4.97;0.98;;;;;;;20.16;52.08;98831.72;5133329;27;20436;-71
2021/05/17 09:43:45;;;;;;;1.52;0.70;;;;;;;19.87;50.15;98829.44;5116993;28;27903;-77
2021/05/17 09:46:11;;;;;;;1.50;0.70;;;;;;;19.58;49.61;98831.75;5116656;28;20031;-76
2021/05/17 09:48:46;;;;;;;1.95;0.60;;;;;;;19.29;49.75;98829.44;5115377;28;37972;-73
2021/05/17 09:51:13;;;;;;;1.98;0.68;;;;;;;19.27;50.85;98818.91;5117938;28;20028;-75
2021/05/17 09:53:42;;;;;;;1.98;0.60;;;;;;;19.34;50.74;98815.13;5133655;27;20656;-72
2021/05/17 09:56:20;;;;;;;1.75;0.70;;;;;;;19.50;51.24;98824.16;5125345;27;20023;-73
2021/05/17 09:58:46;;;;;;;2.30;0.70;;;;;;;19.74;50.92;98811.03;5136770;27;20114;-76
2021/05/17 10:01:28;;;;;;;3.03;0.70;;;;;;;19.99;50.86;98804.09;5138536;27;20114;-74
2021/05/17 10:03:55;;;;;;;2.83;1.00;;;;;;;20.04;50.14;98812.19;5138770;27;20491;-77
2021/05/17 10:06:25;;;;;;;4.72;0.88;;;;;;;20.17;50.35;98814.41;5137385;27;20103;-77
2021/05/17 10:08:50;;;;;;;2.28;0.60;;;;;;;20.28;49.62;98824.19;5102552;27;20038;-77
2021/05/17 10:11:17;;;;;;;2.08;0.60;;;;;;;20.42;49.45;98815.53;5137134;27;20123;-75
2021/05/17 10:13:42;;;;;;;2.70;0.88;;;;;;;20.46;49.23;98822.03;5116114;28;20814;-75
2021/05/17 10:16:09;;;;;;;3.70;0.88;;;;;;;20.50;49.05;98828.50;5115004;28;39456;-72
2021/05/17 10:18:35;;;;;;;4.57;0.75;;;;;;;20.65;49.04;98816.88;5117655;27;20024;-72
2021/05/17 10:21:02;;;;;;;2.38;0.75;;;;;;;20.81;49.10;98815.03;5099134;28;20031;-73
2021/05/17 10:23:27;;;;;;;2.28;0.70;;;;;;;20.92;48.54;98813.94;5117372;27;20172;-79
2021/05/17 10:25:53;;;;;;;1.58;0.80;;;;;;;21.00;48.41;98812.59;5134889;27;20111;-77
2021/05/17 10:28:22;;;;;;;3.80;1.20;;;;;;;20.93;47.40;98812.84;5116576;28;20028;-77
2021/05/17 10:30:48;;;;;;;2.83;1.10;;;;;;;20.82;47.13;98815.84;5099485;28;20032;-79
2021/05/17 10:33:22;;;;;;;1.83;0.70;;;;;;;20.59;46.41;98813.38;5118256;28;20477;-77
2021/05/17 10:35:49;;;;;;;3.47;0.88;;;;;;;20.52;46.75;98806.63;5117127;28;20056;-78
2021/05/17 10:38:33;;;;;;;3.63;0.98;;;;;;;20.28;46.07;98809.84;5117139;27;20465;-72
2021/05/17 10:41:14;;;;;;;3.30;1.15;;;;;;;19.97;45.19;98804.38;5115908;28;20032;-72
2021/05/17 10:46:40;;;;;;;;;;;;;;;19.71;46.59;98817.75;5137543;27;20040;-68
2021/05/17 10:49:27;;;;;;;2.95;0.90;;;;;;;19.80;46.79;98812.69;5138001;27;19916;-69
2021/05/17 10:51:54;;;;;;;4.70;1.50;;;;;;;19.74;46.23;98808.31;5137242;27;20093;-67
2021/05/17 10:54:27;;;;;;;6.63;1.60;;;;;;;19.65;46.03;98816.09;5137448;27;20549;-70
2021/05/17 10:56:56;;;;;;;5.22;1.83;;;;;;;19.52;46.19;98816.56;5132187;27;20031;-69
2021/05/17 11:02:15;;;;;;;6.30;1.50;;;;;;;19.42;46.28;98817.34;5113887;28;20119;-67
2021/05/17 11:04:46;;;;;;;4.80;1.60;;;;;;;19.40;46.46;98814.91;5116297;27;20031;-70
2021/05/17 11:07:28;;;;;;;3.58;1.38;;;;;;;19.36;46.45;98821.09;5116004;27;20059;-70
2021/05/17 11:09:59;;;;;;;8.32;3.30;;;;;;;19.41;46.55;98815.72;5125547;27;20072;-69
2021/05/17 11:12:28;;;;;;;5.60;1.55;;;;;;;19.42;46.67;98814.63;5143846;27;20032;-65
2021/05/17 11:15:16;;;;;;;2.08;1.20;;;;;;;19.33;46.28;98824.31;5126061;27;20032;-71
2021/05/17 11:18:02;;;;;;;3.92;1.33;;;;;;;19.19;46.14;98821.25;5127452;27;20520;-71
2021/05/17 11:20:40;;;;;;;3.78;1.50;;;;;;;19.08;46.31;98823.06;5126211;27;20031;-71
2021/05/17 11:23:12;;;;;;;4.60;1.73;;;;;;;19.02;46.48;98829.53;5126818;27;20105;-73
2021/05/17 11:25:50;;;;;;;3.08;1.67;;;;;;;18.95;46.53;98827.03;5123655;27;20119;-71
2021/05/17 11:28:17;;;;;;;2.95;1.27;;;;;;;18.92;46.73;98824.88;5122304;27;20042;-70
2021/05/17 11:30:43;;;;;;;3.28;1.48;;;;;;;18.89;46.79;98831.59;5121309;27;20107;-71
2021/05/17 11:33:16;;;;;;;3.60;1.15;;;;;;;18.89;47.12;98831.59;5123866;27;20093;-70
2021/05/17 11:36:01;;;;;;;6.93;2.85;;;;;;;18.98;47.25;98833.81;5120629;27;20035;-69
2021/05/17 11:38:26;;;;;;;5.65;1.50;;;;;;;19.05;47.31;98829.81;5125925;27;20044;-68
2021/05/17 11:40:52;;;;;;;4.38;1.60;;;;;;;19.12;47.54;98826.88;5122931;27;35580;-68
2021/05/17 11:43:17;;;;;;;3.15;1.70;;;;;;;19.27;47.48;98831.56;5124509;27;20027;-69
2021/05/17 11:45:44;;;;;;;5.40;1.75;;;;;;;19.38;47.46;98832.44;5122444;27;20039;-66
2021/05/17 11:48:09;;;;;;;7.28;1.83;;;;;;;19.49;47.51;98830.59;5123605;27;20032;-70
2021/05/17 11:50:34;;;;;;;5.55;1.50;;;;;;;19.62;47.52;98830.13;5121554;27;39992;-67
2021/05/17 11:53:00;;;;;;;5.63;1.67;;;;;;;19.78;47.64;98836.44;5123771;27;38583;-70
2021/05/17 11:55:25;;;;;;;2.70;1.10;;;;;;;19.89;47.15;98826.50;5120354;27;20036;-69
2021/05/17 11:57:52;;;;;;;5.13;1.55;;;;;;;19.92;47.05;98831.38;5122693;27;20032;-71
2021/05/17 12:00:21;;;;;;;4.30;1.50;;;;;;;19.91;46.84;98835.94;5122845;27;20032;-66
2021/05/17 12:02:53;;;;;;;3.50;1.40;;;;;;;19.87;46.19;98834.06;5124730;27;20024;-67
2021/05/17 12:05:23;;;;;;;5.10;1.30;;;;;;;19.71;46.08;98835.84;5124944;27;20076;-67
2021/05/17 12:07:51;;;;;;;4.55;1.50;;;;;;;19.64;46.43;98840.69;5121128;27;20032;-67
2021/05/17 12:10:16;;;;;;;2.90;1.05;;;;;;;19.70;46.45;98836.94;5120375;27;20125;-67
2021/05/17 12:12:42;;;;;;;6.50;2.15;;;;;;;19.65;45.90;98834.22;5123329;27;20035;-67
2021/05/17 12:15:11;;;;;;;4.97;1.73;;;;;;;19.50;45.59;98838.44;5122505;27;20493;-66
2021/05/17 12:17:37;;;;;;;3.85;1.85;;;;;;;19.40;45.61;98841.09;5122759;27;20032;-69
2021/05/17 12:20:09;;;;;;;9.77;2.35;;;;;;;19.27;45.66;98834.25;5122068;27;20036;-69
2021/05/17 12:22:43;;;;;;;5.30;1.20;;;;;;;19.21;45.93;98836.13;5121447;27;20115;-70
2021/05/17 12:25:10;;;;;;;5.97;1.70;;;;;;;19.23;46.04;98842.09;5124351;27;20070;-73
2021/05/17 12:27:36;;;;;;;6.20;1.50;;;;;;;19.26;46.10;98840.75;5122608;27;20027;-71
2021/05/17 12:30:10;;;;;;;5.43;1.15;;;;;;;19.36;46.32;98837.31;5119274;27;20472;-72
2021/05/17 12:32:44;;;;;;;4.50;1.25;;;;;;;19.40;45.91;98841.09;5125001;27;20032;-71
2021/05/17 12:35:31;;;;;;;3.75;1.23;;;;;;;19.35;45.48;98838.38;5124320;27;20028;-72
2021/05/17 12:38:12;;;;;;;3.53;1.80;;;;;;;19.30;45.70;98841.03;5126102;27;20045;-71
2021/05/17 12:40:37;;;;;;;;;;;;;;;19.27;45.88;98837.78;5142567;27;20035;-70
2021/05/17 12:43:16;;;;;;;3.80;1.42;;;;;;;19.36;45.95;98834.59;5122186;27;19942;-71
2021/05/17 12:45:43;;;;;;;3.53;1.40;;;;;;;19.43;46.16;98832.47;5121325;27;20035;-69
2021/05/17 12:48:21;;;;;;;2.40;1.30;;;;;;;19.48;45.96;98829.81;5121640;27;20579;-71
2021/05/17 12:50:52;;;;;;;5.05;1.38;;;;;;;19.62;46.02;98839.03;5119899;27;20028;-71
2021/05/17 12:53:19;;;;;;;3.55;1.20;;;;;;;19.86;46.35;98830.56;5125483;27;20496;-70
2021/05/17 12:55:48;;;;;;;2.58;1.25;;;;;;;20.16;46.77;98820.91;5125046;27;20020;-71
2021/05/17 12:58:24;;;;;;;4.15;1.20;;;;;;;20.48;46.36;98819.88;5121767;27;20503;-69
2021/05/17 13:49:21;;;;;;;2.92;1.30;;;;;;;21.60;42.79;98818.16;5191732;27;20340;-67
2021/05/17 13:51:47;;;;;;;7.10;1.55;;;;;;;21.52;42.49;98813.28;5119904;27;20551;-66
2021/05/17 13:54:12;;;;;;;3.97;1.50;;;;;;;21.41;41.85;98817.13;5170798;27;37043;-71
2021/05/17 13:56:37;;;;;;;3.13;1.15;;;;;;;21.19;41.71;98809.31;5182005;27;35172;-74
2021/05/17 13:59:03;;;;;;;2.53;1.00;;;;;;;21.04;41.69;98810.16;5172093;27;22282;-71
2021/05/17 14:01:28;;;;;;;4.05;1.40;;;;;;;20.94;42.07;98809.06;5183224;27;31405;-66
2021/05/17 14:03:54;;;;;;;4.40;1.50;;;;;;;20.92;41.90;98815.84;5195117;27;20026;-68
2021/05/17 14:06:19;;;;;;;4.05;1.10;;;;;;;20.86;41.70;98808.78;5193960;27;38064;-67
2021/05/17 14:08:44;;;;;;;4.10;1.20;;;;;;;20.63;41.11;98808.25;5194680;27;20035;-69
2021/05/17 14:11:12;;;;;;;3.15;1.13;;;;;;;20.43;41.34;98809.03;5195063;27;20035;-73
2021/05/17 14:13:37;;;;;;;3.88;1.13;;;;;;;20.27;41.26;98805.50;5194709;27;20487;-76
2021/05/17 14:16:03;;;;;;;2.95;0.98;;;;;;;20.14;41.57;98806.84;5194288;27;36042;-72
2021/05/17 14:18:28;;;;;;;3.90;1.23;;;;;;;20.07;41.66;98815.19;5193051;27;20062;-76
2021/05/17 14:20:54;;;;;;;4.72;1.40;;;;;;;20.08;41.89;98813.28;5193605;27;20051;-71
2021/05/17 14:23:19;;;;;;;4.80;1.60;;;;;;;20.11;41.99;98813.59;5193920;27;20044;-73
2021/05/17 14:25:45;;;;;;;4.05;1.10;;;;;;;20.03;41.46;98810.59;5194714;27;20027;-73
2021/05/17 14:28:10;;;;;;;3.03;1.38;;;;;;;19.86;41.29;98817.03;5191388;27;20041;-73
2021/05/17 14:30:36;;;;;;;7.32;1.90;;;;;;;19.75;41.67;98816.16;5193711;27;20034;-69
2021/05/17 14:33:01;;;;;;;2.55;1.20;;;;;;;19.75;42.01;98818.03;5193751;27;20022;-69
2021/05/17 14:35:27;;;;;;;3.08;1.45;;;;;;;19.77;42.26;98815.88;5194460;27;20031;-67
2021/05/17 14:37:52;;;;;;;4.15;1.50;;;;;;;19.60;41.94;98814.19;5171838;27;20075;-70
2021/05/17 14:40:18;;;;;;;4.45;1.80;;;;;;;19.47;42.14;98811.97;5181349;27;37933;-66
2021/05/17 14:42:43;;;;;;;4.40;1.42;;;;;;;19.48;42.74;98815.47;5172452;27;20023;-77
2021/05/17 14:45:09;;;;;;;3.58;1.63;;;;;;;19.40;42.63;98822.22;5174451;27;20051;-68
2021/05/17 14:47:35;;;;;;;2.80;1.48;;;;;;;19.25;42.62;98812.13;5176669;27;20046;-73
2021/05/17 14:50:00;;;;;;;3.28;1.25;;;;;;;19.13;43.00;98815.03;5194229;27;20335;-70
2021/05/17 14:52:29;;;;;;;6.13;1.50;;;;;;;19.10;43.45;98818.25;5183328;27;20023;-76
2021/05/17 14:54:54;;;;;;;4.90;1.10;;;;;;;19.11;43.82;98819.88;5187351;27;20512;-69
2021/05/17 14:57:20;;;;;;;2.47;1.20;;;;;;;19.07;43.73;98822.28;5177221;27;20027;-71
2021/05/17 14:59:45;;;;;;;3.42;1.30;;;;;;;19.10;44.07;98820.94;5166508;27;20315;-65
2021/05/17 15:02:10;;;;;;;4.68;1.45;;;;;;;19.18;44.13;98833.16;5179638;27;26542;-75
2021/05/17 15:04:36;;;;;;;3.90;1.63;;;;;;;19.33;44.61;98840.50;5179397;27;35081;-67
2021/05/17 15:07:01;;;;;;;2.72;1.00;;;;;;;19.44;44.39;98836.81;5148795;27;25497;-69
2021/05/17 15:09:27;;;;;;;3.63;0.90;;;;;;;19.39;43.89;98839.47;5146250;27;20441;-68
2021/05/17 15:11:52;;;;;;;5.05;1.10;;;;;;;19.40;43.97;98844.59;5168783;27;29324;-65
2021/05/17 15:14:17;;;;;;;3.05;1.20;;;;;;;19.48;44.11;98845.19;5171453;27;38413;-67
2021/05/17 15:16:43;;;;;;;2.30;0.57;;;;;;;19.49;43.71;98850.34;5161671;27;34194;-64
2021/05/17 15:19:08;;;;;;;1.20;0.80;;;;;;;19.49;43.43;98844.94;5179319;27;28839;-70
2021/05/17 15:21:34;;;;;;;3.17;1.02;;;;;;;19.45;43.22;98847.34;5153409;27;20044;-71
2021/05/17 15:24:00;;;;;;;2.28;0.80;;;;;;;19.42;43.19;98847.03;5150870;27;20030;-70
2021/05/17 15:26:25;;;;;;;4.95;1.08;;;;;;;19.45;43.33;98849.22;5165021;27;20023;-67
2021/05/17 15:28:51;;;;;;;3.20;0.88;;;;;;;19.55;43.32;98862.00;5175635;27;20023;-65
2021/05/17 15:31:17;;;;;;;2.17;0.98;;;;;;;19.56;43.27;98848.22;5127652;27;20057;-66
2021/05/17 15:33:42;;;;;;;3.33;1.48;;;;;;;19.63;43.23;98856.09;5170575;27;31574;-67
2021/05/17 15:36:07;;;;;;;3.60;1.25;;;;;;;19.70;43.44;98850.44;5158495;27;20120;-68
2021/05/17 15:38:33;;;;;;;7.47;1.80;;;;;;;19.77;43.33;98851.00;5174130;27;20022;-66
2021/05/17 15:40:59;;;;;;;6.25;1.60;;;;;;;19.83;43.66;98849.97;5161076;27;37799;-70
2021/05/17 15:43:29;;;;;;;2.72;1.50;;;;;;;19.87;43.28;98845.66;5173164;27;20441;-65
2021/05/17 15:45:54;;;;;;;7.22;1.65;;;;;;;19.88;43.36;98852.69;5168416;27;20029;-68
2021/05/17 15:48:20;;;;;;;6.88;1.65;;;;;;;19.90;43.73;98853.25;5164545;27;22054;-66
2021/05/17 15:50:46;;;;;;;6.88;1.73;;;;;;;19.90;43.66;98850.56;5174514;27;34458;-71
2021/05/17 15:53:12;;;;;;;3.42;1.35;;;;;;;19.82;43.57;98853.78;5162078;27;20839;-70
2021/05/17 15:55:38;;;;;;;3.78;2.13;;;;;;;19.72;43.43;98845.56;5152011;27;30878;-67
2021/05/17 15:58:03;;;;;;;4.10;1.48;;;;;;;19.56;43.36;98850.09;5133503;27;20023;-69
2021/05/17 16:00:28;;;;;;;11.82;7.80;;;;;;;19.39;43.35;98848.38;5162473;27;32205;-71
2021/05/17 16:02:54;;;;;;;5.75;2.15;;;;;;;19.20;43.54;98849.88;5174738;27;20425;-70
2021/05/17 16:05:20;;;;;;;3.63;1.33;;;;;;;18.96;43.38;98850.28;5162937;27;20027;-68
2021/05/17 16:07:46;;;;;;;6.22;1.80;;;;;;;18.75;43.91;98852.78;5168853;27;20536;-69
2021/05/17 16:10:13;;;;;;;4.60;1.80;;;;;;;18.65;44.24;98854.56;5157258;27;20145;-71
2021/05/17 16:13:04;;;;;;;3.55;1.35;;;;;;;18.54;44.63;98854.47;5173632;27;20423;-67
2021/05/17 16:15:35;;;;;;;5.30;1.50;;;;;;;18.48;44.94;98852.78;5146798;27;20034;-67
2021/05/17 16:23:13;;;;;;;5.30;1.48;;;;;;;18.44;45.40;98857.06;5157749;27;20375;-66
2021/05/17 16:25:38;;;;;;;3.92;1.67;;;;;;;18.42;45.82;98848.41;5169845;27;20031;-66
2021/05/17 16:28:04;;;;;;;8.43;1.90;;;;;;;18.40;45.80;98851.34;5168708;27;20037;-67
2021/05/17 16:30:30;;;;;;;12.27;7.22;;;;;;;18.39;46.07;98857.81;5162696;27;20039;-67
2021/05/17 16:32:55;;;;;;;4.00;1.90;;;;;;;18.34;45.90;98856.94;5137861;27;33721;-65
2021/05/17 16:35:21;;;;;;;8.32;1.98;;;;;;;18.29;46.30;98859.59;5162022;27;38413;-66
2021/05/17 16:37:46;;;;;;;3.45;1.70;;;;;;;18.24;46.45;98858.47;5171177;27;26868;-65
2021/05/17 16:40:13;;;;;;;7.40;1.95;;;;;;;18.16;46.47;98858.91;5172027;27;20027;-63
2021/05/17 16:42:38;;;;;;;8.32;1.73;;;;;;;18.12;46.73;98855.09;5140608;27;20798;-64
2021/05/17 16:45:04;;;;;;;6.22;1.65;;;;;;;18.05;46.93;98858.00;5156180;27;35539;-64
2021/05/17 16:47:30;;;;;;;6.28;1.27;;;;;;;18.01;47.08;98853.38;5155868;27;20047;-67
2021/05/17 16:49:55;;;;;;;9.45;2.00;;;;;;;17.97;47.25;98857.63;5156513;27;32774;-65
2021/05/17 16:52:21;;;;;;;6.50;1.55;;;;;;;17.90;47.35;98863.97;5157294;27;20399;-66
2021/05/17 16:54:48;;;;;;;5.13;1.60;;;;;;;17.83;47.41;98865.25;5163902;27;26757;-66
2021/05/17 16:57:14;;;;;;;8.02;1.45;;;;;;;17.75;47.83;98866.50;5178309;27;20088;-67
2021/05/17 16:59:39;;;;;;;5.05;1.48;;;;;;;17.66;47.83;98870.66;5178141;27;20069;-68
2021/05/17 17:02:05;;;;;;;4.45;1.65;;;;;;;17.51;48.21;98872.09;5177556;27;26760;-67
2021/05/17 17:04:30;;;;;;;4.95;2.08;;;;;;;17.24;48.33;98882.75;5177910;27;20349;-64
2021/05/17 17:06:56;;;;;;;3.35;1.67;;;;;;;16.93;48.75;98890.31;5178588;27;20038;-63
2021/05/17 17:09:22;;;;;;;2.72;1.63;;;;;;;16.49;50.08;98896.25;5172584;27;20038;-70
2021/05/17 17:11:48;;;;;;;4.05;1.88;;;;;;;16.06;49.85;98894.88;5155989;27;20058;-66
2021/05/17 17:14:14;;;;;;;3.03;1.73;;;;;;;15.74;50.87;98900.66;5155393;27;20027;-66
2021/05/17 17:16:41;;;;;;;2.88;1.80;;;;;;;15.48;51.07;98905.47;5136830;27;20027;-63
2021/05/17 17:19:07;;;;;;;4.50;1.80;;;;;;;15.29;52.24;98917.38;5155298;27;20027;-70